Time;durP1;ratioP1;P1;durP2;ratioP2;P2;SDS_P1;SDS_P2;PMS_P1;PMS_P2;Temp;Humidity;BMP_temperature;BMP_pressure;BME280_temperature;BME280_humidity;BME280_pressure;Samples;Min_cycle;Max_cycle;Signal;HPM_P1;HPM_P2
2023/05/10 00:01:34;;;;;;;3.45;3.25;;;;;;;9.28;90.81;95136.47;5097086;28;20180;-73
2023/05/10 00:04:00;;;;;;;3.42;3.22;;;;;;;9.30;89.78;95145.22;5096041;28;20200;-73
2023/05/10 00:06:27;;;;;;;3.80;3.50;;;;;;;9.39;89.72;95138.44;5096193;28;20196;-73
2023/05/10 00:08:54;;;;;;;3.75;3.40;;;;;;;9.38;88.79;95138.78;5096233;28;20209;-73
2023/05/10 00:11:21;;;;;;;4.20;3.88;;;;;;;9.35;88.77;95133.97;5096118;28;20193;-73
2023/05/10 00:13:50;;;;;;;3.40;3.20;;;;;;;9.34;89.00;95133.16;5097120;28;20234;-73
2023/05/10 00:16:17;;;;;;;4.00;3.70;;;;;;;9.36;88.86;95125.34;5097027;28;20181;-73
2023/05/10 00:18:45;;;;;;;3.85;3.55;;;;;;;9.36;88.50;95132.81;5096679;28;20192;-74
2023/05/10 00:21:12;;;;;;;3.70;3.50;;;;;;;9.30;87.82;95128.69;5096502;28;20549;-74
2023/05/10 00:24:16;;;;;;;3.92;3.63;;;;;;;9.23;88.13;95128.47;5096170;28;20274;-74
2023/05/10 00:27:20;;;;;;;3.60;3.40;;;;;;;9.25;88.61;95128.91;5096468;28;20259;-75
2023/05/10 00:30:24;;;;;;;3.45;3.25;;;;;;;9.24;87.62;95124.56;5095978;28;20602;-74
2023/05/10 00:33:28;;;;;;;3.58;3.28;;;;;;;9.16;88.25;95124.31;5096575;28;20180;-73
2023/05/10 00:36:32;;;;;;;3.72;3.50;;;;;;;9.12;88.67;95117.09;5095709;28;20211;-73
2023/05/10 00:39:36;;;;;;;3.70;3.40;;;;;;;9.08;88.37;95118.94;5096545;28;20192;-73
2023/05/10 00:42:40;;;;;;;3.42;3.22;;;;;;;8.94;88.33;95116.50;5096286;28;20247;-73
2023/05/10 00:45:44;;;;;;;3.65;3.45;;;;;;;9.00;88.96;95117.06;5096392;28;20243;-72
2023/05/10 00:48:48;;;;;;;3.70;3.50;;;;;;;9.00;88.66;95117.84;5096400;28;20204;-72
2023/05/10 00:51:52;;;;;;;3.83;3.60;;;;;;;9.05;88.70;95112.16;5096382;28;20184;-73
2023/05/10 00:54:56;;;;;;;4.35;4.07;;;;;;;9.11;88.34;95108.03;5095538;28;20200;-75
2023/05/10 00:58:00;;;;;;;4.10;3.80;;;;;;;9.13;87.69;95102.97;5096243;28;20184;-74
2023/05/10 01:01:04;;;;;;;4.18;3.88;;;;;;;9.15;87.23;95108.97;5095036;28;20257;-74
2023/05/10 01:04:09;;;;;;;4.35;4.05;;;;;;;9.00;87.48;95108.81;5096110;28;20196;-73
2023/05/10 01:07:13;;;;;;;4.10;3.80;;;;;;;9.08;87.36;95103.22;5095930;28;20200;-73
2023/05/10 01:10:17;;;;;;;4.53;4.22;;;;;;;9.09;87.53;95104.81;5095767;28;20203;-74
2023/05/10 01:13:21;;;;;;;4.05;3.80;;;;;;;8.91;87.79;95101.47;5094980;28;20192;-74
2023/05/10 01:16:25;;;;;;;4.47;4.18;;;;;;;8.84;88.14;95106.72;5096030;28;20251;-73
2023/05/10 01:19:29;;;;;;;4.50;4.20;;;;;;;8.89;88.41;95102.94;5095793;28;20271;-74
2023/05/10 01:22:33;;;;;;;4.50;4.20;;;;;;;8.94;88.33;95099.19;5094936;28;20637;-73
2023/05/10 01:25:24;;;;;;;4.20;4.00;;;;;;;8.80;88.44;95091.25;5095689;28;20212;-73
2023/05/10 01:28:18;;;;;;;4.63;4.32;;;;;;;8.71;88.84;95087.78;5095640;28;20188;-73
2023/05/10 01:31:08;;;;;;;4.82;4.47;;;;;;;8.71;88.92;95090.53;5093128;28;20220;-74
2023/05/10 01:33:39;;;;;;;4.00;3.80;;;;;;;8.63;88.79;95083.97;5095277;28;20184;-73
2023/05/10 01:36:10;;;;;;;4.03;3.83;;;;;;;8.44;89.31;95081.75;5095577;28;20234;-73
2023/05/10 01:38:43;;;;;;;4.40;3.80;;;;;;;8.37;88.85;95087.81;5095451;28;20601;-73
2023/05/10 01:41:14;;;;;;;3.63;3.42;;;;;;;8.41;89.43;95082.44;5095426;28;20180;-72
2023/05/10 01:43:49;;;;;;;4.20;3.90;;;;;;;8.53;88.99;95078.91;5094267;28;20284;-72
2023/05/10 01:46:20;;;;;;;3.80;3.50;;;;;;;8.59;88.48;95064.63;5095420;28;20273;-73
2023/05/10 01:48:52;;;;;;;3.97;3.67;;;;;;;8.50;87.87;95068.63;5094447;28;20200;-72
2023/05/10 01:51:24;;;;;;;3.35;3.13;;;;;;;8.44;87.82;95062.53;5094912;28;20195;-74
2023/05/10 01:53:52;;;;;;;3.22;3.03;;;;;;;8.52;87.80;95071.81;5094364;28;20192;-73
2023/05/10 01:56:22;;;;;;;3.05;2.95;;;;;;;8.44;87.38;95079.00;5094506;28;20245;-74
2023/05/10 01:58:49;;;;;;;3.30;3.10;;;;;;;8.36;86.73;95077.13;5094246;28;20192;-74
2023/05/10 02:01:17;;;;;;;3.15;2.95;;;;;;;8.26;87.15;95078.34;5095246;28;20276;-73
2023/05/10 02:03:44;;;;;;;3.15;2.95;;;;;;;8.26;86.49;95072.06;5094976;28;20535;-74
2023/05/10 02:06:14;;;;;;;2.80;2.65;;;;;;;8.22;86.58;95076.63;5094393;28;20526;-73
2023/05/10 02:08:41;;;;;;;3.15;2.95;;;;;;;8.22;86.84;95074.66;5094919;28;20173;-73
2023/05/10 02:11:08;;;;;;;3.00;2.78;;;;;;;8.28;86.07;95072.50;5094955;28;20538;-73
2023/05/10 02:13:36;;;;;;;3.17;2.95;;;;;;;8.34;85.53;95084.91;5094444;28;20265;-73
2023/05/10 02:16:04;;;;;;;2.80;2.70;;;;;;;8.33;85.57;95070.34;5094366;28;20192;-73
2023/05/10 02:18:32;;;;;;;3.00;2.80;;;;;;;8.44;85.27;95085.31;5095158;28;20216;-73
2023/05/10 02:21:00;;;;;;;2.90;2.70;;;;;;;8.42;84.31;95079.38;5094158;28;20200;-73
2023/05/10 02:23:29;;;;;;;3.05;2.85;;;;;;;8.39;84.20;95082.00;5094199;28;20184;-72
2023/05/10 02:25:57;;;;;;;2.78;2.67;;;;;;;8.40;82.88;95072.59;5093834;28;20678;-73
2023/05/10 02:28:25;;;;;;;2.80;2.70;;;;;;;8.29;81.73;95077.69;5093753;28;20200;-72
2023/05/10 02:30:52;;;;;;;2.95;2.75;;;;;;;8.14;81.34;95081.06;5093813;28;20193;-73
2023/05/10 02:33:19;;;;;;;3.60;3.30;;;;;;;8.12;80.56;95081.38;5094993;28;20197;-73
2023/05/10 02:35:46;;;;;;;3.28;3.08;;;;;;;7.94;79.00;95074.44;5093765;28;20192;-73
2023/05/10 02:38:14;;;;;;;3.40;3.10;;;;;;;7.97;78.58;95082.81;5094930;28;20207;-73
2023/05/10 02:40:44;;;;;;;3.85;2.95;;;;;;;7.98;77.35;95072.63;5096113;28;20207;-73
2023/05/10 02:43:14;;;;;;;3.65;3.25;;;;;;;7.88;76.54;95078.50;5094789;28;20239;-72
2023/05/10 02:45:41;;;;;;;3.85;3.60;;;;;;;7.81;76.14;95089.25;5094244;28;20223;-72
2023/05/10 02:48:08;;;;;;;3.70;3.40;;;;;;;7.72;76.07;95067.34;5094664;28;20200;-73
2023/05/10 02:50:37;;;;;;;3.83;3.47;;;;;;;7.67;76.68;95079.31;5094018;28;20196;-73
2023/05/10 02:53:08;;;;;;;3.70;3.40;;;;;;;7.73;77.16;95085.41;5076907;28;20258;-73
2023/05/10 02:55:37;;;;;;;3.33;3.13;;;;;;;7.83;76.77;95079.53;5094657;28;20197;-73
2023/05/10 02:58:07;;;;;;;3.67;3.30;;;;;;;7.79;76.51;95086.03;5094486;28;20181;-73
2023/05/10 03:00:34;;;;;;;3.63;3.33;;;;;;;7.68;76.21;95083.66;5094657;28;20204;-73
2023/05/10 03:03:01;;;;;;;3.88;3.20;;;;;;;7.58;75.87;95083.25;5096695;28;20548;-73
2023/05/10 03:05:27;;;;;;;4.07;3.60;;;;;;;7.51;77.01;95080.22;5097409;28;20222;-73
2023/05/10 03:07:55;;;;;;;3.63;3.42;;;;;;;7.37;77.24;95081.31;5097346;28;20573;-73
2023/05/10 03:10:25;;;;;;;3.80;3.60;;;;;;;7.32;77.61;95076.00;5098303;28;20193;-73
2023/05/10 03:13:01;;;;;;;3.42;3.22;;;;;;;7.30;77.49;95089.25;5098061;28;20253;-73
2023/05/10 03:15:38;;;;;;;3.65;3.45;;;;;;;7.29;78.04;95081.34;5097751;28;20180;-73
2023/05/10 03:18:08;;;;;;;3.60;3.30;;;;;;;7.29;77.12;95084.88;5097260;28;20196;-73
2023/05/10 03:20:37;;;;;;;3.67;3.38;;;;;;;7.33;77.43;95085.03;5097131;28;20207;-73
2023/05/10 03:23:12;;;;;;;3.70;3.40;;;;;;;7.29;77.12;95075.84;5097763;28;20192;-73
2023/05/10 03:25:39;;;;;;;3.45;3.20;;;;;;;7.27;77.13;95087.16;5096678;28;20219;-73
2023/05/10 03:28:07;;;;;;;3.70;3.40;;;;;;;7.32;77.25;95092.47;5098097;28;20185;-73
2023/05/10 03:30:36;;;;;;;3.80;3.50;;;;;;;7.30;77.07;95089.25;5097699;28;20200;-73
2023/05/10 03:33:06;;;;;;;4.00;3.60;;;;;;;7.37;76.89;95092.28;5097838;28;20196;-73
2023/05/10 03:35:33;;;;;;;4.18;3.80;;;;;;;7.45;77.17;95096.09;5097844;28;20264;-73
2023/05/10 03:38:00;;;;;;;3.88;3.58;;;;;;;7.41;76.47;95093.22;5097040;28;20200;-73
2023/05/10 03:40:28;;;;;;;3.92;3.50;;;;;;;7.44;76.77;95100.78;5097730;28;20663;-73
2023/05/10 03:42:55;;;;;;;4.07;3.78;;;;;;;7.42;77.05;95102.25;5096784;28;20232;-73
2023/05/10 03:45:22;;;;;;;3.85;3.55;;;;;;;7.53;76.23;95110.91;5096875;28;20582;-73
2023/05/10 03:47:50;;;;;;;3.92;3.63;;;;;;;7.65;76.29;95109.03;5097628;28;20211;-73
2023/05/10 03:50:18;;;;;;;4.00;3.70;;;;;;;7.71;76.32;95107.72;5097587;28;20200;-73
2023/05/10 03:52:44;;;;;;;4.07;3.58;;;;;;;7.78;75.17;95112.69;5097440;28;20271;-74
2023/05/10 03:55:11;;;;;;;4.28;3.97;;;;;;;7.77;74.80;95113.81;5097129;28;20504;-74
2023/05/10 03:57:38;;;;;;;4.30;3.88;;;;;;;7.63;74.68;95119.56;5096505;28;20204;-73
2023/05/10 04:00:06;;;;;;;3.85;3.50;;;;;;;7.56;75.25;95122.03;5097450;28;20238;-73
2023/05/10 04:02:33;;;;;;;3.92;3.40;;;;;;;7.50;74.91;95126.09;5097354;28;20227;-73
2023/05/10 04:05:01;;;;;;;3.80;3.50;;;;;;;7.67;75.07;95117.75;5097134;28;20631;-73
2023/05/10 04:07:28;;;;;;;4.45;4.13;;;;;;;7.77;75.78;95127.56;5096536;28;20215;-73
2023/05/10 04:09:54;;;;;;;4.45;3.78;;;;;;;7.74;74.84;95125.47;5097024;28;20196;-73
2023/05/10 04:12:21;;;;;;;4.63;4.15;;;;;;;7.74;75.50;95130.97;5096220;28;20207;-72
2023/05/10 04:14:48;;;;;;;5.03;4.63;;;;;;;7.76;75.28;95136.91;5096006;28;20197;-73
2023/05/10 04:17:14;;;;;;;4.55;4.07;;;;;;;7.78;75.56;95137.41;5096059;28;20592;-73
2023/05/10 04:19:41;;;;;;;4.72;4.38;;;;;;;7.76;75.95;95136.91;5096214;28;20208;-72
2023/05/10 04:22:09;;;;;;;4.80;4.40;;;;;;;7.74;75.82;95132.91;5096975;28;20196;-72
2023/05/10 04:24:36;;;;;;;4.65;4.22;;;;;;;7.69;75.77;95129.19;5096020;28;20189;-72
2023/05/10 04:27:03;;;;;;;5.50;5.00;;;;;;;7.76;76.03;95138.84;5096574;28;20208;-73
2023/05/10 04:29:31;;;;;;;4.18;3.78;;;;;;;7.67;75.51;95130.69;5096754;28;20196;-72
2023/05/10 04:31:58;;;;;;;3.92;3.63;;;;;;;7.57;75.91;95125.56;5096092;28;20199;-73
2023/05/10 04:34:25;;;;;;;3.65;3.45;;;;;;;7.58;75.95;95130.72;5095798;28;20553;-72
2023/05/10 04:36:53;;;;;;;5.80;4.35;;;;;;;7.54;76.47;95132.53;5096589;28;20188;-72
2023/05/10 04:39:21;;;;;;;4.68;4.30;;;;;;;7.49;76.99;95132.72;5096445;28;20257;-72
2023/05/10 04:41:48;;;;;;;5.18;4.78;;;;;;;7.60;78.00;95141.38;5095146;28;20236;-72
2023/05/10 04:44:14;;;;;;;4.88;4.30;;;;;;;7.66;77.39;95145.53;5096309;28;20185;-72
2023/05/10 04:46:41;;;;;;;5.28;4.78;;;;;;;7.56;78.27;95140.44;5095499;28;20216;-72
2023/05/10 04:49:08;;;;;;;4.30;4.00;;;;;;;7.62;77.99;95125.38;5095882;28;20201;-71
2023/05/10 04:51:37;;;;;;;4.85;4.45;;;;;;;7.66;78.27;95137.28;5096056;28;20196;-72
2023/05/10 04:54:04;;;;;;;4.32;3.92;;;;;;;7.69;77.91;95129.19;5095420;28;20189;-73
2023/05/10 04:57:08;;;;;;;4.90;4.50;;;;;;;7.57;78.30;95142.03;5095411;28;20188;-72
2023/05/10 05:00:12;;;;;;;6.45;5.90;;;;;;;7.56;77.95;95135.75;5095461;28;20207;-72
2023/05/10 05:03:16;;;;;;;4.40;4.10;;;;;;;7.52;78.13;95140.31;5096174;28;20188;-69
2023/05/10 05:06:20;;;;;;;5.57;4.30;;;;;;;7.56;78.14;95140.44;5095386;28;20223;-72
2023/05/10 05:09:24;;;;;;;4.50;4.20;;;;;;;7.61;77.86;95142.97;5094874;28;20242;-71
2023/05/10 05:12:29;;;;;;;4.70;4.30;;;;;;;7.59;77.54;95140.59;5095496;28;20200;-70
2023/05/10 05:15:33;;;;;;;4.63;4.10;;;;;;;7.68;76.83;95148.75;5096308;28;20188;-72
2023/05/10 05:18:37;;;;;;;4.30;3.90;;;;;;;8.34;83.81;95143.41;5095638;28;20616;-74
2023/05/10 05:21:41;;;;;;;13.63;5.30;;;;;;;8.71;79.29;95138.06;5095747;28;20195;-74
2023/05/10 05:24:45;;;;;;;4.60;4.20;;;;;;;8.78;74.92;95141.06;5095185;28;20192;-70
2023/05/10 05:27:49;;;;;;;5.32;4.93;;;;;;;8.39;75.28;95150.69;5094852;28;20216;-69
2023/05/10 05:30:53;;;;;;;6.78;6.10;;;;;;;8.31;76.78;95143.28;5094893;28;20208;-68
2023/05/10 05:33:57;;;;;;;5.35;4.95;;;;;;;8.26;76.84;95152.53;5095426;28;20583;-69
2023/05/10 05:37:01;;;;;;;4.93;4.53;;;;;;;8.18;76.93;95165.22;5096482;28;20604;-68
2023/05/10 05:40:05;;;;;;;4.80;4.50;;;;;;;8.07;77.65;95165.94;5096326;28;20244;-74
2023/05/10 05:43:12;;;;;;;6.65;4.78;;;;;;;7.95;77.97;95162.00;5094955;28;20270;-73
2023/05/10 05:46:15;;;;;;;5.50;5.10;;;;;;;7.90;78.52;95167.66;5094903;28;20543;-71
2023/05/10 05:49:21;;;;;;;5.75;5.32;;;;;;;7.91;78.54;95169.28;5094992;28;20208;-70
2023/05/10 05:52:25;;;;;;;6.07;5.55;;;;;;;8.01;78.48;95170.81;5095258;28;20200;-73
2023/05/10 05:55:06;;;;;;;6.15;5.65;;;;;;;7.95;78.45;95167.50;5095716;28;20294;-72
2023/05/10 05:57:33;;;;;;;5.85;5.45;;;;;;;7.97;78.98;95175.38;5096316;28;20200;-71
2023/05/10 06:00:00;;;;;;;5.72;5.32;;;;;;;8.09;79.34;95174.66;5096315;28;20230;-73
2023/05/10 06:02:27;;;;;;;5.47;4.97;;;;;;;8.01;79.01;95170.81;5095065;28;20200;-73
2023/05/10 06:04:53;;;;;;;6.28;5.75;;;;;;;8.08;79.23;95178.53;5095991;28;20172;-72
2023/05/10 06:07:20;;;;;;;7.65;6.93;;;;;;;8.10;78.72;95168.03;5095043;28;20227;-72
2023/05/10 06:09:47;;;;;;;6.45;5.88;;;;;;;8.07;78.82;95176.94;5095019;28;20204;-76
2023/05/10 06:12:15;;;;;;;5.88;5.38;;;;;;;8.16;79.01;95181.22;5095227;28;20203;-72
2023/05/10 06:14:42;;;;;;;6.70;6.20;;;;;;;8.12;78.59;95187.72;5094555;28;20204;-72
2023/05/10 06:17:11;;;;;;;6.28;5.78;;;;;;;8.10;78.97;95177.06;5094834;28;20192;-72
2023/05/10 06:19:38;;;;;;;6.15;5.65;;;;;;;8.10;78.50;95185.31;5094795;28;20533;-72
2023/05/10 06:22:05;;;;;;;6.25;5.75;;;;;;;8.19;78.78;95185.25;5094452;28;20203;-72
2023/05/10 06:24:31;;;;;;;6.80;6.20;;;;;;;8.26;78.51;95179.22;5094341;28;20196;-74
2023/05/10 06:26:59;;;;;;;6.72;5.97;;;;;;;8.29;78.56;95184.03;5094524;28;20229;-74
2023/05/10 06:29:27;;;;;;;6.88;6.20;;;;;;;8.27;79.25;95180.81;5094318;28;20200;-73
2023/05/10 06:31:54;;;;;;;7.43;6.50;;;;;;;8.34;79.81;95187.38;5094311;28;20188;-72
2023/05/10 06:34:21;;;;;;;6.85;6.32;;;;;;;8.25;79.04;95181.16;5094442;28;20207;-72
2023/05/10 06:36:48;;;;;;;6.45;5.85;;;;;;;8.29;79.09;95182.09;5095998;28;20188;-72
2023/05/10 06:39:14;;;;;;;5.88;5.40;;;;;;;8.25;78.38;95192.16;5098788;28;20192;-72
2023/05/10 06:41:41;;;;;;;6.30;5.80;;;;;;;8.24;77.84;95192.47;5097830;28;20196;-72
2023/05/10 06:44:08;;;;;;;5.80;5.30;;;;;;;8.32;78.48;95189.69;5098013;28;20203;-73
2023/05/10 06:46:36;;;;;;;6.25;5.75;;;;;;;8.37;78.46;95197.75;5097698;28;20216;-72
2023/05/10 06:49:04;;;;;;;6.53;6.00;;;;;;;8.41;77.79;95189.63;5098390;28;20251;-72
2023/05/10 06:51:31;;;;;;;6.45;5.95;;;;;;;8.51;78.23;95199.41;5098444;28;20192;-72
2023/05/10 06:53:57;;;;;;;6.28;5.85;;;;;;;8.60;77.66;95180.88;5098140;28;20199;-72
2023/05/10 06:56:24;;;;;;;6.15;5.55;;;;;;;8.55;76.36;95198.41;5098382;28;20211;-72
2023/05/10 06:58:51;;;;;;;6.70;5.95;;;;;;;8.55;76.96;95187.41;5099060;28;20197;-72
2023/05/10 07:01:17;;;;;;;6.38;5.88;;;;;;;8.58;76.78;95191.44;5098413;28;20200;-72
2023/05/10 07:03:46;;;;;;;7.03;6.43;;;;;;;8.60;76.20;95200.94;5099015;28;20197;-72
2023/05/10 07:06:12;;;;;;;7.72;7.03;;;;;;;8.62;76.26;95195.91;5098060;28;20231;-73
2023/05/10 07:08:39;;;;;;;7.20;6.50;;;;;;;8.53;76.29;95191.63;5097542;28;20196;-74
2023/05/10 07:11:07;;;;;;;7.07;6.45;;;;;;;8.41;75.62;95204.16;5098141;28;20223;-74
2023/05/10 07:13:36;;;;;;;6.30;5.80;;;;;;;8.45;75.71;95196.06;5097269;28;20200;-72
2023/05/10 07:16:02;;;;;;;6.47;5.93;;;;;;;8.49;75.53;95209.94;5097477;28;20199;-74
2023/05/10 07:18:29;;;;;;;6.63;5.90;;;;;;;8.48;75.81;95198.13;5097472;28;20250;-75
2023/05/10 07:20:57;;;;;;;6.07;5.60;;;;;;;8.49;75.38;95212.69;5098249;28;20197;-75
2023/05/10 07:23:24;;;;;;;6.93;6.35;;;;;;;8.42;75.56;95205.81;5097484;28;20200;-73
2023/05/10 07:25:52;;;;;;;7.32;6.60;;;;;;;8.38;74.72;95207.59;5097042;28;20612;-73
2023/05/10 07:28:19;;;;;;;6.32;5.75;;;;;;;8.36;75.82;95209.06;5097117;28;20220;-74
2023/05/10 07:30:46;;;;;;;6.10;5.60;;;;;;;8.35;75.89;95210.16;5097827;28;20192;-73
2023/05/10 07:33:14;;;;;;;6.35;5.80;;;;;;;8.34;75.45;95203.06;5096899;28;20258;-73
2023/05/10 07:35:41;;;;;;;6.40;5.90;;;;;;;8.39;75.74;95208.41;5097627;28;20196;-74
2023/05/10 07:38:10;;;;;;;7.15;6.45;;;;;;;8.42;75.88;95210.47;5097326;28;20597;-72
2023/05/10 07:40:37;;;;;;;6.07;5.55;;;;;;;8.36;75.60;95201.59;5098179;28;20261;-72
2023/05/10 07:43:04;;;;;;;7.30;6.00;;;;;;;8.36;76.14;95211.78;5099753;28;20273;-71
2023/05/10 07:45:31;;;;;;;6.95;6.32;;;;;;;8.50;75.93;95212.38;5098248;28;20188;-72
2023/05/10 07:47:58;;;;;;;7.78;7.10;;;;;;;8.54;75.34;95207.00;5095982;28;20561;-71
2023/05/10 07:50:24;;;;;;;6.20;5.72;;;;;;;8.52;74.58;95218.31;5097042;28;20250;-73
2023/05/10 07:52:51;;;;;;;6.82;6.32;;;;;;;8.42;74.46;95218.72;5096386;28;20196;-73
2023/05/10 07:55:22;;;;;;;7.10;6.43;;;;;;;8.49;74.66;95218.97;5096905;28;20192;-72
2023/05/10 07:57:48;;;;;;;8.00;6.40;;;;;;;8.51;74.48;95218.66;5096392;28;20242;-72
2023/05/10 08:00:18;;;;;;;7.30;6.75;;;;;;;8.51;74.42;95216.72;5096678;28;20196;-73
2023/05/10 08:02:45;;;;;;;8.10;7.40;;;;;;;8.56;74.81;95219.25;5096397;28;20628;-74
2023/05/10 08:05:12;;;;;;;7.88;7.18;;;;;;;8.62;74.84;95211.59;5096249;28;20192;-75
2023/05/10 08:07:39;;;;;;;7.55;6.95;;;;;;;8.68;74.49;95232.28;5096860;28;20221;-74
2023/05/10 08:10:07;;;;;;;8.20;7.50;;;;;;;8.67;73.74;95225.13;5096620;28;20200;-73
2023/05/10 08:12:35;;;;;;;6.90;6.35;;;;;;;8.56;73.70;95235.75;5096406;28;20278;-74
2023/05/10 08:15:02;;;;;;;7.53;6.93;;;;;;;8.58;74.39;95229.94;5096372;28;20196;-74
2023/05/10 08:17:28;;;;;;;7.50;6.70;;;;;;;8.63;73.70;95222.25;5097031;28;20291;-73
2023/05/10 08:19:55;;;;;;;7.78;6.90;;;;;;;8.67;74.22;95219.63;5096618;28;20199;-74
2023/05/10 08:22:22;;;;;;;7.72;6.90;;;;;;;8.73;74.55;95217.50;5097314;28;20534;-73
2023/05/10 08:24:49;;;;;;;7.43;6.82;;;;;;;8.78;75.15;95218.06;5095791;28;20200;-73
2023/05/10 08:27:16;;;;;;;7.60;6.90;;;;;;;8.91;74.42;95227.19;5096460;28;20277;-70
2023/05/10 08:29:44;;;;;;;7.43;6.88;;;;;;;8.96;74.55;95232.47;5096841;28;20184;-70
2023/05/10 08:32:11;;;;;;;7.72;7.13;;;;;;;9.00;74.53;95225.16;5095928;28;20207;-69
2023/05/10 08:34:38;;;;;;;7.90;7.20;;;;;;;9.10;74.54;95232.97;5096695;28;20181;-69
2023/05/10 08:37:05;;;;;;;8.95;7.40;;;;;;;9.09;74.90;95227.84;5095842;28;20193;-69
2023/05/10 08:39:35;;;;;;;8.02;7.43;;;;;;;9.06;75.43;95229.31;5095857;28;20197;-70
2023/05/10 08:42:03;;;;;;;6.75;6.25;;;;;;;8.98;74.03;95221.94;5095779;28;20651;-71
2023/05/10 08:44:30;;;;;;;7.85;7.05;;;;;;;9.03;75.53;95221.72;5095173;28;20220;-71
2023/05/10 08:47:00;;;;;;;8.50;7.78;;;;;;;9.14;76.12;95219.34;5095202;28;20219;-71
2023/05/10 08:49:28;;;;;;;6.43;5.90;;;;;;;9.13;74.99;95221.31;5095641;28;20204;-71
2023/05/10 08:51:56;;;;;;;7.25;6.60;;;;;;;9.07;74.90;95224.59;5095601;28;20192;-72
2023/05/10 08:54:23;;;;;;;7.18;6.60;;;;;;;9.12;75.48;95222.44;5095722;28;20193;-72
2023/05/10 08:56:50;;;;;;;7.53;7.03;;;;;;;9.24;75.94;95216.16;5095371;28;20211;-75
2023/05/10 08:59:17;;;;;;;6.85;6.28;;;;;;;9.21;74.85;95219.59;5094763;28;20199;-71
2023/05/10 09:01:46;;;;;;;7.00;6.30;;;;;;;9.11;74.83;95225.53;5095418;28;20215;-70
2023/05/10 09:04:15;;;;;;;6.60;6.10;;;;;;;9.14;75.63;95225.66;5095357;28;20203;-72
2023/05/10 09:06:42;;;;;;;7.28;6.57;;;;;;;9.13;75.46;95226.81;5095020;28;20495;-75
2023/05/10 09:09:08;;;;;;;6.38;5.88;;;;;;;9.20;75.49;95228.22;5095338;28;20192;-71
2023/05/10 09:11:35;;;;;;;7.13;6.45;;;;;;;9.24;75.58;95224.44;5095173;28;20242;-71
2023/05/10 09:14:02;;;;;;;6.35;5.90;;;;;;;9.26;74.52;95224.91;5095326;28;20196;-71
2023/05/10 09:16:29;;;;;;;6.57;6.07;;;;;;;9.32;74.98;95229.03;5095305;28;20601;-72
2023/05/10 09:18:55;;;;;;;7.50;6.95;;;;;;;9.31;74.15;95230.19;5095017;28;20189;-71
2023/05/10 09:21:24;;;;;;;6.32;5.72;;;;;;;9.27;73.18;95228.47;5094601;28;20196;-72
2023/05/10 09:23:54;;;;;;;8.00;7.35;;;;;;;9.22;75.37;95223.16;5094647;28;20203;-72
2023/05/10 09:26:23;;;;;;;7.55;6.95;;;;;;;9.37;75.05;95225.28;5094898;28;20192;-72
2023/05/10 09:28:54;;;;;;;6.60;6.10;;;;;;;9.32;73.50;95223.53;5094297;28;20216;-71
2023/05/10 09:31:21;;;;;;;7.50;6.95;;;;;;;9.34;73.39;95234.22;5094748;28;20254;-71
2023/05/10 09:33:48;;;;;;;7.40;6.85;;;;;;;9.35;73.36;95233.84;5094464;28;20196;-72
2023/05/10 09:36:16;;;;;;;7.13;6.50;;;;;;;9.31;72.70;95229.38;5094972;28;20204;-72
2023/05/10 09:38:51;;;;;;;8.32;7.20;;;;;;;9.36;73.38;95224.44;5094614;28;20200;-72
2023/05/10 09:41:20;;;;;;;7.57;6.97;;;;;;;9.47;72.71;95218.50;5095072;28;20200;-72
2023/05/10 09:43:46;;;;;;;7.55;6.95;;;;;;;9.44;72.56;95221.94;5095534;28;20618;-71
2023/05/10 09:46:13;;;;;;;7.35;6.65;;;;;;;9.47;72.01;95216.53;5094256;28;20537;-72
2023/05/10 09:48:42;;;;;;;7.10;6.55;;;;;;;9.62;72.73;95210.38;5094659;28;20212;-72
2023/05/10 09:51:10;;;;;;;6.45;5.95;;;;;;;9.55;71.03;95212.06;5094637;28;20207;-74
2023/05/10 09:53:36;;;;;;;6.20;5.80;;;;;;;9.56;71.14;95216.47;5095112;28;20199;-72
2023/05/10 09:56:05;;;;;;;7.13;6.53;;;;;;;9.55;71.56;95215.66;5094182;28;20204;-72
2023/05/10 09:58:31;;;;;;;6.95;6.45;;;;;;;9.63;71.30;95205.69;5094105;28;20191;-72
2023/05/10 10:00:58;;;;;;;7.05;6.45;;;;;;;9.65;71.27;95212.44;5095124;28;20199;-71
2023/05/10 10:03:25;;;;;;;6.75;6.25;;;;;;;9.65;70.74;95200.63;5094656;28;20207;-71
2023/05/10 10:05:53;;;;;;;6.47;5.97;;;;;;;9.64;70.90;95202.56;5094377;28;20207;-71
2023/05/10 10:08:20;;;;;;;6.32;5.82;;;;;;;9.65;71.27;95204.16;5094320;28;20307;-71
2023/05/10 10:10:48;;;;;;;6.50;5.97;;;;;;;9.70;70.48;95202.34;5094939;28;20192;-71
2023/05/10 10:13:17;;;;;;;6.45;5.95;;;;;;;9.73;69.97;95198.91;5098766;28;20185;-71
2023/05/10 10:15:44;;;;;;;6.55;5.97;;;;;;;9.71;70.53;95195.69;5098677;28;20227;-70
2023/05/10 10:18:14;;;;;;;6.60;6.03;;;;;;;9.77;70.28;95189.63;5098619;28;20196;-70
2023/05/10 10:20:41;;;;;;;7.18;6.68;;;;;;;9.81;71.97;95190.53;5098106;28;20202;-70
2023/05/10 10:23:09;;;;;;;6.80;6.30;;;;;;;9.87;70.47;95182.81;5098722;28;20203;-70
2023/05/10 10:25:36;;;;;;;7.22;6.60;;;;;;;10.03;71.18;95188.44;5098360;28;20200;-70
2023/05/10 10:28:12;;;;;;;6.88;6.28;;;;;;;10.04;69.68;95185.34;5098284;28;20298;-71
2023/05/10 10:30:43;;;;;;;6.57;6.07;;;;;;;10.12;70.73;95192.66;5098006;28;20187;-71
2023/05/10 10:33:42;;;;;;;9.85;8.90;;;;;;;10.16;69.83;95192.78;5098239;28;20193;-70
2023/05/10 10:36:09;;;;;;;7.82;7.15;;;;;;;10.19;69.87;95196.81;5097499;28;20261;-73
2023/05/10 10:38:59;;;;;;;6.38;5.88;;;;;;;10.11;69.13;95198.53;5097733;28;20206;-71
2023/05/10 10:41:31;;;;;;;5.72;5.22;;;;;;;10.09;69.52;95198.06;5098601;28;20211;-71
2023/05/10 10:44:36;;;;;;;6.68;6.03;;;;;;;10.03;68.73;95202.22;5098084;28;20207;-71
2023/05/10 10:47:08;;;;;;;6.25;5.75;;;;;;;9.94;68.59;95205.09;5098177;28;20307;-70
2023/05/10 10:49:42;;;;;;;6.50;5.90;;;;;;;9.94;69.28;95199.56;5098054;28;20228;-71
2023/05/10 10:52:28;;;;;;;6.72;6.20;;;;;;;9.98;68.47;95194.97;5097632;28;20595;-70
2023/05/10 10:55:00;;;;;;;6.10;5.70;;;;;;;9.99;69.24;95198.56;5097672;28;20290;-70
2023/05/10 10:57:29;;;;;;;6.53;5.93;;;;;;;10.00;69.51;95194.66;5097679;28;20207;-70
2023/05/10 11:00:24;;;;;;;5.63;5.22;;;;;;;10.02;69.38;95193.16;5097438;28;20201;-70
2023/05/10 11:02:53;;;;;;;6.88;6.30;;;;;;;9.97;69.90;95198.91;5097554;28;20201;-72
2023/05/10 11:05:38;;;;;;;5.88;5.38;;;;;;;10.02;69.51;95198.69;5098145;28;20196;-71
2023/05/10 11:08:11;;;;;;;6.00;5.60;;;;;;;10.01;69.47;95199.00;5097560;28;20235;-71
2023/05/10 11:10:38;;;;;;;7.30;5.50;;;;;;;10.04;69.28;95196.34;5097488;28;20207;-71
2023/05/10 11:13:06;;;;;;;6.45;6.05;;;;;;;10.11;69.27;95196.59;5097974;28;20207;-71
2023/05/10 11:15:33;;;;;;;6.53;6.03;;;;;;;10.19;68.70;95188.53;5097834;28;20192;-71
2023/05/10 11:18:18;;;;;;;6.93;6.35;;;;;;;10.19;69.00;95189.31;5097366;28;20204;-71
2023/05/10 11:20:46;;;;;;;6.00;5.60;;;;;;;10.26;68.16;95197.84;5097205;28;20203;-71
2023/05/10 11:23:15;;;;;;;5.97;5.57;;;;;;;10.26;67.75;95192.34;5096658;28;20192;-71
2023/05/10 11:25:44;;;;;;;6.22;5.63;;;;;;;10.25;67.99;95201.75;5097522;28;20205;-71
2023/05/10 11:28:11;;;;;;;5.57;5.18;;;;;;;10.17;68.67;95193.56;5097266;28;20309;-71
2023/05/10 11:30:38;;;;;;;5.65;5.15;;;;;;;10.16;68.67;95197.50;5097211;28;20196;-71
2023/05/10 11:33:07;;;;;;;5.55;5.15;;;;;;;10.15;68.46;95198.66;5098084;28;20211;-70
2023/05/10 11:35:38;;;;;;;5.93;5.53;;;;;;;10.22;68.53;95196.09;5097365;28;20208;-72
2023/05/10 11:38:07;;;;;;;5.93;5.45;;;;;;;10.22;67.72;95199.66;5097744;28;20636;-71
2023/05/10 11:40:34;;;;;;;5.32;5.00;;;;;;;10.17;68.02;95202.69;5097354;28;20192;-72
2023/05/10 11:43:00;;;;;;;6.07;5.57;;;;;;;10.18;68.47;95192.44;5097089;28;20232;-71
2023/05/10 11:45:28;;;;;;;6.20;5.70;;;;;;;10.18;68.24;95195.19;5096847;28;20196;-71
2023/05/10 11:47:56;;;;;;;5.80;5.40;;;;;;;10.21;68.99;95197.28;5097259;28;20281;-71
2023/05/10 11:50:25;;;;;;;6.53;5.85;;;;;;;10.28;69.02;95189.25;5096835;28;20632;-71
2023/05/10 11:52:53;;;;;;;5.70;5.30;;;;;;;10.23;68.08;95189.44;5096507;28;20279;-71
2023/05/10 11:55:19;;;;;;;6.57;5.32;;;;;;;10.27;68.72;95185.66;5097579;28;20176;-70
2023/05/10 11:57:47;;;;;;;5.82;5.00;;;;;;;10.26;68.88;95180.50;5097070;28;20216;-70
2023/05/10 12:00:14;;;;;;;5.68;5.28;;;;;;;10.30;68.95;95192.44;5096496;28;20541;-70
2023/05/10 12:02:41;;;;;;;5.93;5.43;;;;;;;10.33;68.72;95195.31;5096327;28;20216;-70
2023/05/10 12:05:09;;;;;;;5.55;5.15;;;;;;;10.19;69.40;95185.78;5097303;28;20184;-70
2023/05/10 12:07:37;;;;;;;6.03;4.97;;;;;;;10.21;69.85;95184.28;5096507;28;20204;-70
2023/05/10 12:10:08;;;;;;;5.97;5.47;;;;;;;10.28;69.75;95179.03;5096142;28;20211;-70
2023/05/10 12:12:42;;;;;;;6.00;5.50;;;;;;;10.28;69.30;95175.47;5096127;28;20192;-70